sensor_id;sensor_type;location;lat;lon;timestamp;P1;durP1;ratioP1;P2;durP2;ratioP2
23322;SDS011;11833;52.554;13.554;2023-05-14T00:01:18;6.78;;;3.85;;
23322;SDS011;11833;52.554;13.554;2023-05-14T00:03:44;4.10;;;3.42;;
23322;SDS011;11833;52.554;13.554;2023-05-14T00:06:10;5.35;;;3.70;;
23322;SDS011;11833;52.554;13.554;2023-05-14T00:08:35;4.10;;;3.70;;
23322;SDS011;11833;52.554;13.554;2023-05-14T00:11:01;6.15;;;3.90;;
23322;SDS011;11833;52.554;13.554;2023-05-14T00:13:27;4.28;;;3.75;;
23322;SDS011;11833;52.554;13.554;2023-05-14T00:15:53;6.30;;;3.92;;
23322;SDS011;11833;52.554;13.554;2023-05-14T00:18:18;5.53;;;3.92;;
23322;SDS011;11833;52.554;13.554;2023-05-14T00:20:44;6.35;;;3.42;;
23322;SDS011;11833;52.554;13.554;2023-05-14T00:23:10;7.45;;;3.78;;
23322;SDS011;11833;52.554;13.554;2023-05-14T00:25:36;4.18;;;3.67;;
23322;SDS011;11833;52.554;13.554;2023-05-14T00:28:02;5.65;;;3.67;;
23322;SDS011;11833;52.554;13.554;2023-05-14T00:30:28;10.15;;;3.83;;
23322;SDS011;11833;52.554;13.554;2023-05-14T00:32:54;5.68;;;4.50;;
23322;SDS011;11833;52.554;13.554;2023-05-14T00:35:19;7.43;;;3.90;;
23322;SDS011;11833;52.554;13.554;2023-05-14T00:37:45;4.82;;;3.50;;
23322;SDS011;11833;52.554;13.554;2023-05-14T00:40:11;5.85;;;3.80;;
23322;SDS011;11833;52.554;13.554;2023-05-14T00:42:38;6.47;;;3.47;;
23322;SDS011;11833;52.554;13.554;2023-05-14T00:45:05;4.50;;;3.72;;
23322;SDS011;11833;52.554;13.554;2023-05-14T00:47:32;4.25;;;3.60;;
23322;SDS011;11833;52.554;13.554;2023-05-14T00:50:01;7.47;;;4.25;;
23322;SDS011;11833;52.554;13.554;2023-05-14T00:52:28;6.45;;;3.95;;
23322;SDS011;11833;52.554;13.554;2023-05-14T00:54:53;4.63;;;3.25;;
23322;SDS011;11833;52.554;13.554;2023-05-14T00:57:20;4.43;;;3.63;;
23322;SDS011;11833;52.554;13.554;2023-05-14T00:59:46;5.32;;;3.25;;
23322;SDS011;11833;52.554;13.554;2023-05-14T01:02:12;4.88;;;3.28;;
23322;SDS011;11833;52.554;13.554;2023-05-14T01:04:38;4.13;;;3.60;;
23322;SDS011;11833;52.554;13.554;2023-05-14T01:09:58;8.77;;;3.47;;
23322;SDS011;11833;52.554;13.554;2023-05-14T01:12:39;5.38;;;3.15;;
23322;SDS011;11833;52.554;13.554;2023-05-14T01:15:30;3.38;;;3.00;;
23322;SDS011;11833;52.554;13.554;2023-05-14T01:18:02;3.53;;;3.20;;
23322;SDS011;11833;52.554;13.554;2023-05-14T01:20:34;3.85;;;2.65;;
23322;SDS011;11833;52.554;13.554;2023-05-14T01:23:00;7.90;;;3.13;;
23322;SDS011;11833;52.554;13.554;2023-05-14T01:25:28;3.70;;;2.63;;
23322;SDS011;11833;52.554;13.554;2023-05-14T01:30:44;8.35;;;2.90;;
23322;SDS011;11833;52.554;13.554;2023-05-14T01:33:14;5.55;;;3.55;;
23322;SDS011;11833;52.554;13.554;2023-05-14T01:35:42;4.55;;;3.05;;
23322;SDS011;11833;52.554;13.554;2023-05-14T01:38:10;9.73;;;3.10;;
23322;SDS011;11833;52.554;13.554;2023-05-14T01:40:38;4.05;;;3.33;;
23322;SDS011;11833;52.554;13.554;2023-05-14T01:43:04;4.50;;;2.72;;
23322;SDS011;11833;52.554;13.554;2023-05-14T01:45:30;3.22;;;2.60;;
23322;SDS011;11833;52.554;13.554;2023-05-14T01:47:59;3.85;;;3.00;;
23322;SDS011;11833;52.554;13.554;2023-05-14T01:50:25;5.35;;;2.75;;
23322;SDS011;11833;52.554;13.554;2023-05-14T01:52:51;5.32;;;3.30;;
23322;SDS011;11833;52.554;13.554;2023-05-14T01:55:20;7.95;;;3.13;;
23322;SDS011;11833;52.554;13.554;2023-05-14T01:57:50;7.63;;;2.55;;
23322;SDS011;11833;52.554;13.554;2023-05-14T02:00:17;3.03;;;2.30;;
23322;SDS011;11833;52.554;13.554;2023-05-14T02:02:43;4.38;;;3.15;;
23322;SDS011;11833;52.554;13.554;2023-05-14T02:05:09;4.65;;;3.45;;
23322;SDS011;11833;52.554;13.554;2023-05-14T02:07:36;4.45;;;2.83;;
23322;SDS011;11833;52.554;13.554;2023-05-14T02:10:02;4.68;;;3.03;;
23322;SDS011;11833;52.554;13.554;2023-05-14T02:12:28;5.68;;;3.00;;
23322;SDS011;11833;52.554;13.554;2023-05-14T02:14:54;8.10;;;3.22;;
23322;SDS011;11833;52.554;13.554;2023-05-14T02:17:20;7.00;;;2.95;;
23322;SDS011;11833;52.554;13.554;2023-05-14T02:19:46;5.43;;;3.28;;
23322;SDS011;11833;52.554;13.554;2023-05-14T02:22:11;3.40;;;2.80;;
23322;SDS011;11833;52.554;13.554;2023-05-14T02:24:37;7.10;;;3.58;;
23322;SDS011;11833;52.554;13.554;2023-05-14T02:27:03;11.77;;;3.53;;
23322;SDS011;11833;52.554;13.554;2023-05-14T02:29:30;6.07;;;2.97;;
23322;SDS011;11833;52.554;13.554;2023-05-14T02:31:56;5.50;;;3.33;;
23322;SDS011;11833;52.554;13.554;2023-05-14T02:34:21;5.32;;;3.45;;
23322;SDS011;11833;52.554;13.554;2023-05-14T02:36:47;5.18;;;3.40;;
23322;SDS011;11833;52.554;13.554;2023-05-14T02:39:13;3.45;;;2.90;;
23322;SDS011;11833;52.554;13.554;2023-05-14T02:41:39;4.25;;;3.30;;
23322;SDS011;11833;52.554;13.554;2023-05-14T02:44:04;5.30;;;2.45;;
23322;SDS011;11833;52.554;13.554;2023-05-14T02:46:30;7.80;;;3.28;;
23322;SDS011;11833;52.554;13.554;2023-05-14T02:48:56;12.85;;;3.67;;
23322;SDS011;11833;52.554;13.554;2023-05-14T02:51:23;6.22;;;3.22;;
23322;SDS011;11833;52.554;13.554;2023-05-14T02:53:49;10.82;;;3.45;;
23322;SDS011;11833;52.554;13.554;2023-05-14T02:56:15;12.27;;;3.88;;
23322;SDS011;11833;52.554;13.554;2023-05-14T02:58:40;4.90;;;3.30;;
23322;SDS011;11833;52.554;13.554;2023-05-14T03:01:06;7.80;;;3.22;;
23322;SDS011;11833;52.554;13.554;2023-05-14T03:03:32;9.82;;;3.78;;
23322;SDS011;11833;52.554;13.554;2023-05-14T03:05:58;8.52;;;3.08;;
23322;SDS011;11833;52.554;13.554;2023-05-14T03:08:24;5.13;;;3.55;;
23322;SDS011;11833;52.554;13.554;2023-05-14T03:10:50;15.35;;;3.55;;
23322;SDS011;11833;52.554;13.554;2023-05-14T03:13:16;5.75;;;3.28;;
23322;SDS011;11833;52.554;13.554;2023-05-14T03:15:43;6.10;;;3.20;;
23322;SDS011;11833;52.554;13.554;2023-05-14T03:18:10;4.88;;;3.60;;
23322;SDS011;11833;52.554;13.554;2023-05-14T03:20:37;6.45;;;3.60;;
23322;SDS011;11833;52.554;13.554;2023-05-14T03:23:03;5.85;;;3.50;;
23322;SDS011;11833;52.554;13.554;2023-05-14T03:25:29;4.35;;;3.35;;
23322;SDS011;11833;52.554;13.554;2023-05-14T03:27:54;9.15;;;3.88;;
23322;SDS011;11833;52.554;13.554;2023-05-14T03:30:20;10.75;;;2.85;;
23322;SDS011;11833;52.554;13.554;2023-05-14T03:32:46;4.47;;;3.17;;
23322;SDS011;11833;52.554;13.554;2023-05-14T03:35:12;7.78;;;3.28;;
23322;SDS011;11833;52.554;13.554;2023-05-14T03:37:38;6.80;;;3.58;;
23322;SDS011;11833;52.554;13.554;2023-05-14T03:40:03;6.18;;;3.45;;
23322;SDS011;11833;52.554;13.554;2023-05-14T03:42:30;9.80;;;3.45;;
23322;SDS011;11833;52.554;13.554;2023-05-14T03:44:56;6.43;;;3.38;;
23322;SDS011;11833;52.554;13.554;2023-05-14T03:47:22;7.05;;;3.75;;
23322;SDS011;11833;52.554;13.554;2023-05-14T03:49:47;5.30;;;3.13;;
23322;SDS011;11833;52.554;13.554;2023-05-14T03:52:13;6.55;;;3.58;;
23322;SDS011;11833;52.554;13.554;2023-05-14T03:54:39;5.47;;;3.45;;
23322;SDS011;11833;52.554;13.554;2023-05-14T03:57:05;4.85;;;3.25;;
23322;SDS011;11833;52.554;13.554;2023-05-14T03:59:31;4.28;;;3.28;;
23322;SDS011;11833;52.554;13.554;2023-05-14T04:01:57;7.05;;;2.78;;
23322;SDS011;11833;52.554;13.554;2023-05-14T04:04:22;6.18;;;3.72;;
23322;SDS011;11833;52.554;13.554;2023-05-14T04:06:48;4.40;;;3.15;;
23322;SDS011;11833;52.554;13.554;2023-05-14T04:09:14;9.85;;;3.75;;
23322;SDS011;11833;52.554;13.554;2023-05-14T04:11:40;4.47;;;3.72;;
23322;SDS011;11833;52.554;13.554;2023-05-14T04:14:05;6.47;;;4.03;;
23322;SDS011;11833;52.554;13.554;2023-05-14T04:16:31;4.25;;;2.85;;
23322;SDS011;11833;52.554;13.554;2023-05-14T04:18:57;7.00;;;3.35;;
23322;SDS011;11833;52.554;13.554;2023-05-14T04:21:26;4.22;;;3.42;;
23322;SDS011;11833;52.554;13.554;2023-05-14T04:23:51;6.35;;;3.47;;
23322;SDS011;11833;52.554;13.554;2023-05-14T04:26:18;6.65;;;3.40;;
23322;SDS011;11833;52.554;13.554;2023-05-14T04:28:43;7.25;;;3.65;;
23322;SDS011;11833;52.554;13.554;2023-05-14T04:31:09;6.60;;;3.50;;
23322;SDS011;11833;52.554;13.554;2023-05-14T04:33:35;9.93;;;3.63;;
23322;SDS011;11833;52.554;13.554;2023-05-14T04:36:01;9.35;;;2.97;;
23322;SDS011;11833;52.554;13.554;2023-05-14T04:38:29;6.20;;;3.53;;
23322;SDS011;11833;52.554;13.554;2023-05-14T04:40:55;4.93;;;3.20;;
23322;SDS011;11833;52.554;13.554;2023-05-14T04:43:22;7.57;;;3.88;;
23322;SDS011;11833;52.554;13.554;2023-05-14T04:45:48;9.93;;;3.42;;
23322;SDS011;11833;52.554;13.554;2023-05-14T04:48:15;4.55;;;3.65;;
23322;SDS011;11833;52.554;13.554;2023-05-14T04:50:41;5.10;;;3.45;;
23322;SDS011;11833;52.554;13.554;2023-05-14T04:53:08;10.75;;;3.85;;
23322;SDS011;11833;52.554;13.554;2023-05-14T04:55:34;10.80;;;3.97;;
23322;SDS011;11833;52.554;13.554;2023-05-14T04:58:00;9.85;;;3.88;;
23322;SDS011;11833;52.554;13.554;2023-05-14T05:00:26;5.38;;;3.78;;
23322;SDS011;11833;52.554;13.554;2023-05-14T05:02:53;5.63;;;3.60;;
23322;SDS011;11833;52.554;13.554;2023-05-14T05:05:18;7.88;;;3.70;;
23322;SDS011;11833;52.554;13.554;2023-05-14T05:07:44;13.18;;;4.15;;
23322;SDS011;11833;52.554;13.554;2023-05-14T05:10:10;6.32;;;3.53;;
23322;SDS011;11833;52.554;13.554;2023-05-14T05:12:36;5.40;;;3.53;;
23322;SDS011;11833;52.554;13.554;2023-05-14T05:15:02;4.97;;;3.85;;
23322;SDS011;11833;52.554;13.554;2023-05-14T05:17:29;4.13;;;3.55;;
23322;SDS011;11833;52.554;13.554;2023-05-14T05:19:55;5.95;;;3.33;;
23322;SDS011;11833;52.554;13.554;2023-05-14T05:22:21;6.72;;;3.95;;
23322;SDS011;11833;52.554;13.554;2023-05-14T05:24:47;4.45;;;3.35;;
23322;SDS011;11833;52.554;13.554;2023-05-14T05:27:13;12.15;;;3.90;;
23322;SDS011;11833;52.554;13.554;2023-05-14T05:29:39;6.00;;;3.97;;
23322;SDS011;11833;52.554;13.554;2023-05-14T05:32:05;5.97;;;3.35;;
23322;SDS011;11833;52.554;13.554;2023-05-14T05:34:31;6.97;;;3.80;;
23322;SDS011;11833;52.554;13.554;2023-05-14T05:36:57;7.03;;;3.17;;
23322;SDS011;11833;52.554;13.554;2023-05-14T05:39:22;5.70;;;3.67;;
23322;SDS011;11833;52.554;13.554;2023-05-14T05:41:49;9.45;;;4.03;;
23322;SDS011;11833;52.554;13.554;2023-05-14T05:44:14;9.27;;;3.90;;
23322;SDS011;11833;52.554;13.554;2023-05-14T05:46:40;8.23;;;4.18;;
23322;SDS011;11833;52.554;13.554;2023-05-14T05:49:06;7.72;;;4.57;;
23322;SDS011;11833;52.554;13.554;2023-05-14T05:51:32;15.57;;;7.47;;
23322;SDS011;11833;52.554;13.554;2023-05-14T05:53:57;5.55;;;4.50;;
23322;SDS011;11833;52.554;13.554;2023-05-14T05:56:23;8.30;;;4.50;;
23322;SDS011;11833;52.554;13.554;2023-05-14T05:58:49;8.13;;;3.92;;
23322;SDS011;11833;52.554;13.554;2023-05-14T06:01:14;6.32;;;3.58;;
23322;SDS011;11833;52.554;13.554;2023-05-14T06:03:40;4.70;;;3.28;;
23322;SDS011;11833;52.554;13.554;2023-05-14T06:06:06;8.70;;;3.58;;
23322;SDS011;11833;52.554;13.554;2023-05-14T06:08:32;5.38;;;3.50;;
23322;SDS011;11833;52.554;13.554;2023-05-14T06:10:58;8.40;;;3.58;;
23322;SDS011;11833;52.554;13.554;2023-05-14T06:13:23;6.88;;;3.25;;
23322;SDS011;11833;52.554;13.554;2023-05-14T06:15:49;7.63;;;3.63;;
23322;SDS011;11833;52.554;13.554;2023-05-14T06:18:15;4.38;;;2.95;;
23322;SDS011;11833;52.554;13.554;2023-05-14T06:20:41;11.50;;;3.35;;
23322;SDS011;11833;52.554;13.554;2023-05-14T06:23:07;4.95;;;4.15;;
23322;SDS011;11833;52.554;13.554;2023-05-14T06:25:33;4.97;;;3.22;;
23322;SDS011;11833;52.554;13.554;2023-05-14T06:27:58;5.82;;;4.07;;
23322;SDS011;11833;52.554;13.554;2023-05-14T06:30:24;6.35;;;3.47;;
23322;SDS011;11833;52.554;13.554;2023-05-14T06:32:50;7.78;;;3.35;;
23322;SDS011;11833;52.554;13.554;2023-05-14T06:35:16;7.60;;;3.67;;
23322;SDS011;11833;52.554;13.554;2023-05-14T06:37:43;8.77;;;5.18;;
23322;SDS011;11833;52.554;13.554;2023-05-14T06:40:09;5.22;;;3.50;;
23322;SDS011;11833;52.554;13.554;2023-05-14T06:42:36;6.07;;;3.40;;
23322;SDS011;11833;52.554;13.554;2023-05-14T06:45:02;4.72;;;3.33;;
23322;SDS011;11833;52.554;13.554;2023-05-14T06:47:29;4.85;;;3.33;;
23322;SDS011;11833;52.554;13.554;2023-05-14T06:49:55;9.05;;;3.60;;
23322;SDS011;11833;52.554;13.554;2023-05-14T06:52:22;5.68;;;3.65;;
23322;SDS011;11833;52.554;13.554;2023-05-14T06:54:49;8.02;;;3.42;;
23322;SDS011;11833;52.554;13.554;2023-05-14T06:57:15;6.78;;;3.85;;
23322;SDS011;11833;52.554;13.554;2023-05-14T06:59:40;10.43;;;4.40;;
23322;SDS011;11833;52.554;13.554;2023-05-14T07:02:06;7.20;;;4.68;;
23322;SDS011;11833;52.554;13.554;2023-05-14T07:04:32;8.93;;;6.05;;
23322;SDS011;11833;52.554;13.554;2023-05-14T07:06:58;7.40;;;4.80;;
23322;SDS011;11833;52.554;13.554;2023-05-14T07:09:23;8.32;;;4.78;;
23322;SDS011;11833;52.554;13.554;2023-05-14T07:11:49;10.77;;;6.95;;
23322;SDS011;11833;52.554;13.554;2023-05-14T07:14:15;8.05;;;5.57;;
23322;SDS011;11833;52.554;13.554;2023-05-14T07:16:41;6.75;;;4.43;;
23322;SDS011;11833;52.554;13.554;2023-05-14T07:19:06;7.20;;;4.38;;
23322;SDS011;11833;52.554;13.554;2023-05-14T07:21:33;7.68;;;4.55;;
23322;SDS011;11833;52.554;13.554;2023-05-14T07:24:00;6.82;;;4.68;;
23322;SDS011;11833;52.554;13.554;2023-05-14T07:26:26;7.88;;;5.28;;
23322;SDS011;11833;52.554;13.554;2023-05-14T07:28:51;9.05;;;5.22;;
23322;SDS011;11833;52.554;13.554;2023-05-14T07:31:17;8.68;;;6.35;;
23322;SDS011;11833;52.554;13.554;2023-05-14T07:33:43;7.35;;;3.80;;
23322;SDS011;11833;52.554;13.554;2023-05-14T07:36:09;9.52;;;5.10;;
23322;SDS011;11833;52.554;13.554;2023-05-14T07:38:35;10.75;;;3.42;;
23322;SDS011;11833;52.554;13.554;2023-05-14T07:41:01;7.88;;;5.63;;
23322;SDS011;11833;52.554;13.554;2023-05-14T07:43:26;10.45;;;3.70;;
23322;SDS011;11833;52.554;13.554;2023-05-14T07:45:52;3.65;;;3.35;;
23322;SDS011;11833;52.554;13.554;2023-05-14T07:48:19;5.38;;;3.30;;
23322;SDS011;11833;52.554;13.554;2023-05-14T07:50:46;5.38;;;3.10;;
23322;SDS011;11833;52.554;13.554;2023-05-14T07:53:13;9.60;;;6.03;;
23322;SDS011;11833;52.554;13.554;2023-05-14T07:55:39;6.28;;;3.42;;
23322;SDS011;11833;52.554;13.554;2023-05-14T07:58:06;7.88;;;3.70;;
23322;SDS011;11833;52.554;13.554;2023-05-14T08:00:31;9.50;;;3.67;;
23322;SDS011;11833;52.554;13.554;2023-05-14T08:02:57;5.03;;;3.00;;
23322;SDS011;11833;52.554;13.554;2023-05-14T08:05:23;6.90;;;5.15;;
23322;SDS011;11833;52.554;13.554;2023-05-14T08:07:48;10.25;;;6.78;;
23322;SDS011;11833;52.554;13.554;2023-05-14T08:10:15;6.80;;;4.07;;
23322;SDS011;11833;52.554;13.554;2023-05-14T08:12:40;4.10;;;3.05;;
23322;SDS011;11833;52.554;13.554;2023-05-14T08:15:06;5.13;;;3.22;;
23322;SDS011;11833;52.554;13.554;2023-05-14T08:17:33;5.95;;;3.38;;
23322;SDS011;11833;52.554;13.554;2023-05-14T08:19:59;5.65;;;2.90;;
23322;SDS011;11833;52.554;13.554;2023-05-14T08:22:25;6.65;;;3.60;;
23322;SDS011;11833;52.554;13.554;2023-05-14T08:24:51;9.38;;;7.22;;
23322;SDS011;11833;52.554;13.554;2023-05-14T08:27:17;10.10;;;7.80;;
23322;SDS011;11833;52.554;13.554;2023-05-14T08:29:42;3.47;;;2.88;;
23322;SDS011;11833;52.554;13.554;2023-05-14T08:32:08;5.50;;;2.55;;
23322;SDS011;11833;52.554;13.554;2023-05-14T08:34:34;5.95;;;3.47;;
23322;SDS011;11833;52.554;13.554;2023-05-14T08:37:00;9.88;;;4.03;;
23322;SDS011;11833;52.554;13.554;2023-05-14T08:39:26;8.45;;;5.53;;
23322;SDS011;11833;52.554;13.554;2023-05-14T08:41:52;4.22;;;3.05;;
23322;SDS011;11833;52.554;13.554;2023-05-14T08:44:20;4.88;;;3.25;;
23322;SDS011;11833;52.554;13.554;2023-05-14T08:47:24;4.75;;;2.90;;
23322;SDS011;11833;52.554;13.554;2023-05-14T08:50:00;6.00;;;2.65;;
23322;SDS011;11833;52.554;13.554;2023-05-14T08:52:31;7.45;;;3.17;;
23322;SDS011;11833;52.554;13.554;2023-05-14T08:54:59;4.53;;;2.60;;
23322;SDS011;11833;52.554;13.554;2023-05-14T08:57:29;5.45;;;2.28;;
23322;SDS011;11833;52.554;13.554;2023-05-14T08:59:56;3.67;;;2.47;;
23322;SDS011;11833;52.554;13.554;2023-05-14T09:02:23;4.28;;;3.38;;
23322;SDS011;11833;52.554;13.554;2023-05-14T09:04:56;7.95;;;3.25;;
23322;SDS011;11833;52.554;13.554;2023-05-14T09:07:24;4.07;;;3.00;;
23322;SDS011;11833;52.554;13.554;2023-05-14T09:09:50;3.25;;;2.13;;
23322;SDS011;11833;52.554;13.554;2023-05-14T09:12:17;4.53;;;3.63;;
23322;SDS011;11833;52.554;13.554;2023-05-14T09:14:44;4.13;;;2.65;;
23322;SDS011;11833;52.554;13.554;2023-05-14T09:17:12;7.00;;;1.88;;
23322;SDS011;11833;52.554;13.554;2023-05-14T09:19:41;5.43;;;2.38;;
23322;SDS011;11833;52.554;13.554;2023-05-14T09:22:08;4.05;;;2.40;;
23322;SDS011;11833;52.554;13.554;2023-05-14T09:24:37;3.65;;;2.10;;
23322;SDS011;11833;52.554;13.554;2023-05-14T09:27:04;4.03;;;1.77;;
23322;SDS011;11833;52.554;13.554;2023-05-14T09:29:31;3.22;;;2.20;;
23322;SDS011;11833;52.554;13.554;2023-05-14T09:31:58;3.47;;;2.05;;
23322;SDS011;11833;52.554;13.554;2023-05-14T09:34:32;2.25;;;2.05;;
23322;SDS011;11833;52.554;13.554;2023-05-14T09:37:05;7.45;;;2.72;;
23322;SDS011;11833;52.554;13.554;2023-05-14T09:39:33;6.13;;;2.30;;
23322;SDS011;11833;52.554;13.554;2023-05-14T09:42:00;5.13;;;2.28;;
23322;SDS011;11833;52.554;13.554;2023-05-14T09:44:27;7.90;;;2.55;;
23322;SDS011;11833;52.554;13.554;2023-05-14T09:46:53;5.85;;;3.53;;
23322;SDS011;11833;52.554;13.554;2023-05-14T09:49:20;14.70;;;2.72;;
23322;SDS011;11833;52.554;13.554;2023-05-14T09:51:47;5.10;;;2.72;;
23322;SDS011;11833;52.554;13.554;2023-05-14T09:54:13;3.42;;;2.53;;
23322;SDS011;11833;52.554;13.554;2023-05-14T09:56:39;6.85;;;3.75;;
23322;SDS011;11833;52.554;13.554;2023-05-14T09:59:05;4.80;;;2.60;;
23322;SDS011;11833;52.554;13.554;2023-05-14T10:01:31;3.97;;;2.80;;
23322;SDS011;11833;52.554;13.554;2023-05-14T10:03:57;6.30;;;2.30;;
23322;SDS011;11833;52.554;13.554;2023-05-14T10:06:27;2.60;;;1.98;;
23322;SDS011;11833;52.554;13.554;2023-05-14T10:09:01;10.15;;;2.50;;
23322;SDS011;11833;52.554;13.554;2023-05-14T10:11:32;3.80;;;2.28;;
23322;SDS011;11833;52.554;13.554;2023-05-14T10:14:02;3.92;;;2.30;;
23322;SDS011;11833;52.554;13.554;2023-05-14T10:16:36;4.85;;;2.65;;
23322;SDS011;11833;52.554;13.554;2023-05-14T10:19:08;5.38;;;2.80;;
23322;SDS011;11833;52.554;13.554;2023-05-14T10:21:36;8.73;;;2.85;;
23322;SDS011;11833;52.554;13.554;2023-05-14T10:24:05;3.35;;;2.20;;
23322;SDS011;11833;52.554;13.554;2023-05-14T10:26:33;9.30;;;3.55;;
23322;SDS011;11833;52.554;13.554;2023-05-14T10:29:05;6.22;;;2.28;;
23322;SDS011;11833;52.554;13.554;2023-05-14T10:31:50;4.18;;;2.33;;
23322;SDS011;11833;52.554;13.554;2023-05-14T10:34:39;4.88;;;2.10;;
23322;SDS011;11833;52.554;13.554;2023-05-14T10:37:24;5.45;;;2.92;;
23322;SDS011;11833;52.554;13.554;2023-05-14T10:40:03;5.50;;;2.50;;
23322;SDS011;11833;52.554;13.554;2023-05-14T10:42:34;4.97;;;2.40;;
23322;SDS011;11833;52.554;13.554;2023-05-14T10:45:07;5.40;;;2.10;;
23322;SDS011;11833;52.554;13.554;2023-05-14T10:47:45;2.85;;;2.28;;
23322;SDS011;11833;52.554;13.554;2023-05-14T10:50:15;3.38;;;2.00;;
23322;SDS011;11833;52.554;13.554;2023-05-14T10:52:42;4.10;;;2.58;;
23322;SDS011;11833;52.554;13.554;2023-05-14T10:55:11;6.53;;;2.65;;
23322;SDS011;11833;52.554;13.554;2023-05-14T10:57:41;4.80;;;2.15;;
23322;SDS011;11833;52.554;13.554;2023-05-14T11:00:11;4.78;;;3.00;;
23322;SDS011;11833;52.554;13.554;2023-05-14T11:02:39;4.70;;;2.67;;
23322;SDS011;11833;52.554;13.554;2023-05-14T11:05:09;5.03;;;3.22;;
23322;SDS011;11833;52.554;13.554;2023-05-14T11:07:45;9.55;;;4.10;;
23322;SDS011;11833;52.554;13.554;2023-05-14T11:10:13;4.72;;;2.75;;
23322;SDS011;11833;52.554;13.554;2023-05-14T11:12:45;4.78;;;2.47;;
23322;SDS011;11833;52.554;13.554;2023-05-14T11:15:19;5.85;;;2.13;;
23322;SDS011;11833;52.554;13.554;2023-05-14T11:17:46;3.70;;;2.78;;
23322;SDS011;11833;52.554;13.554;2023-05-14T11:20:14;4.75;;;2.38;;
23322;SDS011;11833;52.554;13.554;2023-05-14T11:22:41;3.30;;;2.00;;
23322;SDS011;11833;52.554;13.554;2023-05-14T11:25:08;4.80;;;2.75;;
23322;SDS011;11833;52.554;13.554;2023-05-14T11:27:38;4.05;;;2.83;;
23322;SDS011;11833;52.554;13.554;2023-05-14T11:30:15;6.35;;;2.50;;
23322;SDS011;11833;52.554;13.554;2023-05-14T11:32:45;4.70;;;3.28;;
23322;SDS011;11833;52.554;13.554;2023-05-14T11:35:13;5.47;;;2.75;;
23322;SDS011;11833;52.554;13.554;2023-05-14T11:37:40;8.38;;;3.30;;
23322;SDS011;11833;52.554;13.554;2023-05-14T11:40:08;5.47;;;3.30;;
23322;SDS011;11833;52.554;13.554;2023-05-14T11:42:40;5.10;;;3.55;;
23322;SDS011;11833;52.554;13.554;2023-05-14T11:45:06;4.32;;;2.28;;
23322;SDS011;11833;52.554;13.554;2023-05-14T11:47:36;5.07;;;2.65;;
23322;SDS011;11833;52.554;13.554;2023-05-14T11:50:02;4.90;;;2.33;;
23322;SDS011;11833;52.554;13.554;2023-05-14T11:52:28;5.65;;;2.60;;
23322;SDS011;11833;52.554;13.554;2023-05-14T11:54:54;8.63;;;2.72;;
23322;SDS011;11833;52.554;13.554;2023-05-14T11:57:20;5.80;;;2.47;;
23322;SDS011;11833;52.554;13.554;2023-05-14T11:59:47;9.27;;;2.55;;
23322;SDS011;11833;52.554;13.554;2023-05-14T12:02:20;5.85;;;2.80;;
23322;SDS011;11833;52.554;13.554;2023-05-14T12:04:50;5.05;;;2.67;;
23322;SDS011;11833;52.554;13.554;2023-05-14T12:07:16;6.03;;;3.85;;
23322;SDS011;11833;52.554;13.554;2023-05-14T12:09:43;7.13;;;3.30;;
23322;SDS011;11833;52.554;13.554;2023-05-14T12:12:15;6.55;;;2.55;;
23322;SDS011;11833;52.554;13.554;2023-05-14T12:14:44;5.60;;;3.42;;
23322;SDS011;11833;52.554;13.554;2023-05-14T12:17:11;5.75;;;2.60;;
23322;SDS011;11833;52.554;13.554;2023-05-14T12:19:43;7.18;;;3.47;;
23322;SDS011;11833;52.554;13.554;2023-05-14T12:22:11;4.15;;;3.00;;
23322;SDS011;11833;52.554;13.554;2023-05-14T12:24:40;5.32;;;2.78;;
23322;SDS011;11833;52.554;13.554;2023-05-14T12:27:08;6.90;;;2.90;;
23322;SDS011;11833;52.554;13.554;2023-05-14T12:29:35;4.55;;;3.00;;
23322;SDS011;11833;52.554;13.554;2023-05-14T12:32:06;4.07;;;2.60;;
23322;SDS011;11833;52.554;13.554;2023-05-14T12:34:33;7.30;;;2.53;;
23322;SDS011;11833;52.554;13.554;2023-05-14T12:37:01;4.85;;;2.50;;
23322;SDS011;11833;52.554;13.554;2023-05-14T12:39:28;5.32;;;2.58;;
23322;SDS011;11833;52.554;13.554;2023-05-14T12:41:57;3.70;;;2.03;;
23322;SDS011;11833;52.554;13.554;2023-05-14T12:44:23;5.90;;;2.10;;
23322;SDS011;11833;52.554;13.554;2023-05-14T12:46:49;4.38;;;2.40;;
23322;SDS011;11833;52.554;13.554;2023-05-14T12:49:14;2.97;;;2.17;;
23322;SDS011;11833;52.554;13.554;2023-05-14T12:51:40;4.30;;;2.25;;
23322;SDS011;11833;52.554;13.554;2023-05-14T12:54:06;4.80;;;2.15;;
23322;SDS011;11833;52.554;13.554;2023-05-14T12:56:31;5.10;;;2.65;;
23322;SDS011;11833;52.554;13.554;2023-05-14T12:58:57;3.60;;;2.05;;
23322;SDS011;11833;52.554;13.554;2023-05-14T13:01:23;6.78;;;2.40;;
23322;SDS011;11833;52.554;13.554;2023-05-14T13:03:49;4.78;;;2.50;;
23322;SDS011;11833;52.554;13.554;2023-05-14T13:06:15;6.35;;;2.92;;
23322;SDS011;11833;52.554;13.554;2023-05-14T13:08:41;6.40;;;2.42;;
23322;SDS011;11833;52.554;13.554;2023-05-14T13:11:07;3.42;;;2.55;;
23322;SDS011;11833;52.554;13.554;2023-05-14T13:13:33;5.72;;;2.78;;
23322;SDS011;11833;52.554;13.554;2023-05-14T13:15:59;6.00;;;2.17;;
23322;SDS011;11833;52.554;13.554;2023-05-14T13:18:24;5.90;;;2.40;;
23322;SDS011;11833;52.554;13.554;2023-05-14T13:20:50;3.28;;;2.67;;
23322;SDS011;11833;52.554;13.554;2023-05-14T13:23:18;4.72;;;2.58;;
23322;SDS011;11833;52.554;13.554;2023-05-14T13:25:43;8.50;;;2.90;;
23322;SDS011;11833;52.554;13.554;2023-05-14T13:28:09;3.88;;;2.30;;
23322;SDS011;11833;52.554;13.554;2023-05-14T13:30:35;9.77;;;2.60;;
23322;SDS011;11833;52.554;13.554;2023-05-14T13:33:02;3.55;;;2.25;;
23322;SDS011;11833;52.554;13.554;2023-05-14T13:35:28;2.72;;;2.25;;
23322;SDS011;11833;52.554;13.554;2023-05-14T13:37:53;6.50;;;3.65;;
23322;SDS011;11833;52.554;13.554;2023-05-14T13:40:19;4.18;;;2.17;;
23322;SDS011;11833;52.554;13.554;2023-05-14T13:42:45;5.43;;;3.50;;
23322;SDS011;11833;52.554;13.554;2023-05-14T13:45:11;3.33;;;2.80;;
23322;SDS011;11833;52.554;13.554;2023-05-14T13:47:37;4.28;;;2.72;;
23322;SDS011;11833;52.554;13.554;2023-05-14T13:50:03;5.88;;;2.50;;
23322;SDS011;11833;52.554;13.554;2023-05-14T13:52:29;4.03;;;2.17;;
23322;SDS011;11833;52.554;13.554;2023-05-14T13:54:55;3.92;;;2.20;;
23322;SDS011;11833;52.554;13.554;2023-05-14T13:57:20;3.00;;;2.05;;
23322;SDS011;11833;52.554;13.554;2023-05-14T13:59:47;3.13;;;2.38;;
23322;SDS011;11833;52.554;13.554;2023-05-14T14:02:13;2.92;;;2.28;;
23322;SDS011;11833;52.554;13.554;2023-05-14T14:04:39;3.95;;;1.65;;
23322;SDS011;11833;52.554;13.554;2023-05-14T14:07:05;6.72;;;2.60;;
23322;SDS011;11833;52.554;13.554;2023-05-14T14:09:30;2.83;;;1.98;;
23322;SDS011;11833;52.554;13.554;2023-05-14T14:12:04;2.65;;;1.85;;
23322;SDS011;11833;52.554;13.554;2023-05-14T14:14:30;3.88;;;1.95;;
23322;SDS011;11833;52.554;13.554;2023-05-14T14:16:56;6.78;;;2.08;;
23322;SDS011;11833;52.554;13.554;2023-05-14T14:19:22;2.28;;;1.83;;
23322;SDS011;11833;52.554;13.554;2023-05-14T14:21:47;4.22;;;2.20;;
23322;SDS011;11833;52.554;13.554;2023-05-14T14:24:13;4.13;;;1.77;;
23322;SDS011;11833;52.554;13.554;2023-05-14T14:26:39;2.90;;;1.65;;
23322;SDS011;11833;52.554;13.554;2023-05-14T14:29:05;2.38;;;2.00;;
23322;SDS011;11833;52.554;13.554;2023-05-14T14:31:30;4.35;;;2.33;;
23322;SDS011;11833;52.554;13.554;2023-05-14T14:33:56;2.20;;;1.73;;
23322;SDS011;11833;52.554;13.554;2023-05-14T14:36:22;3.88;;;1.85;;
23322;SDS011;11833;52.554;13.554;2023-05-14T14:38:47;2.53;;;1.90;;